sensor_id;sensor_type;location;lat;lon;timestamp;pressure;altitude;pressure_sealevel;temperature;humidity
59240;BME280;45010;53.640;10.578;2023-08-12T00:02:45;101151.94;;;27.79;42.49
59240;BME280;45010;53.640;10.578;2023-08-12T00:05:45;101161.69;;;27.86;42.42
59240;BME280;45010;53.640;10.578;2023-08-12T00:08:46;101149.34;;;27.85;42.59
59240;BME280;45010;53.640;10.578;2023-08-12T00:11:46;101146.91;;;27.83;42.27
59240;BME280;45010;53.640;10.578;2023-08-12T00:14:46;101137.50;;;27.81;42.63
59240;BME280;45010;53.640;10.578;2023-08-12T00:17:47;101142.84;;;27.81;42.12
59240;BME280;45010;53.640;10.578;2023-08-12T00:20:47;101146.00;;;27.77;42.27
59240;BME280;45010;53.640;10.578;2023-08-12T00:23:48;101137.88;;;27.72;42.34
59240;BME280;45010;53.640;10.578;2023-08-12T00:26:49;101135.06;;;27.79;42.22
59240;BME280;45010;53.640;10.578;2023-08-12T00:29:50;101132.59;;;27.77;42.02
59240;BME280;45010;53.640;10.578;2023-08-12T00:32:50;101128.31;;;27.76;42.34
59240;BME280;45010;53.640;10.578;2023-08-12T00:35:50;101124.81;;;27.76;42.34
59240;BME280;45010;53.640;10.578;2023-08-12T00:38:51;101124.47;;;27.72;42.56
59240;BME280;45010;53.640;10.578;2023-08-12T00:41:51;101129.03;;;27.72;42.28
59240;BME280;45010;53.640;10.578;2023-08-12T00:44:51;101129.84;;;27.72;41.95
59240;BME280;45010;53.640;10.578;2023-08-12T00:47:51;101119.84;;;27.68;42.02
59240;BME280;45010;53.640;10.578;2023-08-12T00:50:52;101123.38;;;27.68;42.05
59240;BME280;45010;53.640;10.578;2023-08-12T00:53:53;101123.59;;;27.66;42.11
59240;BME280;45010;53.640;10.578;2023-08-12T00:56:55;101115.56;;;27.66;42.02
59240;BME280;45010;53.640;10.578;2023-08-12T00:59:55;101113.13;;;27.65;42.02
59240;BME280;45010;53.640;10.578;2023-08-12T01:02:56;101106.13;;;27.64;42.18
59240;BME280;45010;53.640;10.578;2023-08-12T01:05:56;101109.88;;;27.63;42.41
59240;BME280;45010;53.640;10.578;2023-08-12T01:08:56;101100.78;;;27.64;42.47
59240;BME280;45010;53.640;10.578;2023-08-12T01:15:13;101098.44;;;27.56;42.34
59240;BME280;45010;53.640;10.578;2023-08-12T01:18:16;101103.94;;;27.61;42.20
59240;BME280;45010;53.640;10.578;2023-08-12T01:21:21;101107.66;;;27.60;42.15
59240;BME280;45010;53.640;10.578;2023-08-12T01:24:22;101105.00;;;27.60;42.09
59240;BME280;45010;53.640;10.578;2023-08-12T01:27:22;101097.19;;;27.58;42.43
59240;BME280;45010;53.640;10.578;2023-08-12T01:30:22;101107.09;;;27.58;42.42
59240;BME280;45010;53.640;10.578;2023-08-12T01:36:25;101088.56;;;27.56;41.97
59240;BME280;45010;53.640;10.578;2023-08-12T01:39:27;101096.84;;;27.55;42.45
59240;BME280;45010;53.640;10.578;2023-08-12T01:42:29;101076.47;;;27.53;42.31
59240;BME280;45010;53.640;10.578;2023-08-12T01:45:32;101068.91;;;27.50;41.99
59240;BME280;45010;53.640;10.578;2023-08-12T01:48:33;101081.25;;;27.51;42.45
59240;BME280;45010;53.640;10.578;2023-08-12T01:51:33;101065.91;;;27.47;42.08
59240;BME280;45010;53.640;10.578;2023-08-12T01:54:33;101057.28;;;27.45;42.25
59240;BME280;45010;53.640;10.578;2023-08-12T01:57:34;101072.63;;;27.49;42.08
59240;BME280;45010;53.640;10.578;2023-08-12T02:00:35;101065.66;;;27.48;42.01
59240;BME280;45010;53.640;10.578;2023-08-12T02:03:35;101069.41;;;27.47;42.26
59240;BME280;45010;53.640;10.578;2023-08-12T02:06:35;101071.00;;;27.48;42.09
59240;BME280;45010;53.640;10.578;2023-08-12T02:09:36;101064.03;;;27.47;42.01
59240;BME280;45010;53.640;10.578;2023-08-12T02:12:36;101064.03;;;27.47;42.19
59240;BME280;45010;53.640;10.578;2023-08-12T02:15:36;101058.13;;;27.45;42.08
59240;BME280;45010;53.640;10.578;2023-08-12T02:18:37;101053.81;;;27.44;42.13
59240;BME280;45010;53.640;10.578;2023-08-12T02:21:37;101053.81;;;27.44;42.07
59240;BME280;45010;53.640;10.578;2023-08-12T02:24:37;101053.81;;;27.44;42.01
59240;BME280;45010;53.640;10.578;2023-08-12T02:27:38;101041.47;;;27.43;42.50
59240;BME280;45010;53.640;10.578;2023-08-12T02:30:38;101043.56;;;27.41;42.49
59240;BME280;45010;53.640;10.578;2023-08-12T02:33:39;101038.22;;;27.41;42.06
59240;BME280;45010;53.640;10.578;2023-08-12T02:36:39;101025.88;;;27.40;42.09
59240;BME280;45010;53.640;10.578;2023-08-12T02:39:39;101029.63;;;27.39;42.56
59240;BME280;45010;53.640;10.578;2023-08-12T02:42:40;101029.63;;;27.39;42.44
59240;BME280;45010;53.640;10.578;2023-08-12T02:45:40;101030.69;;;27.38;42.54
59240;BME280;45010;53.640;10.578;2023-08-12T02:48:41;101014.53;;;27.33;42.64
59240;BME280;45010;53.640;10.578;2023-08-12T02:51:41;101023.63;;;27.32;42.06
59240;BME280;45010;53.640;10.578;2023-08-12T02:54:42;101018.31;;;27.37;42.10
59240;BME280;45010;53.640;10.578;2023-08-12T02:57:42;101028.00;;;27.38;42.25
59240;BME280;45010;53.640;10.578;2023-08-12T03:00:43;101012.91;;;27.32;42.21
59240;BME280;45010;53.640;10.578;2023-08-12T03:03:46;101026.34;;;27.37;42.18
59240;BME280;45010;53.640;10.578;2023-08-12T03:06:46;101018.31;;;27.37;42.20
59240;BME280;45010;53.640;10.578;2023-08-12T03:09:47;100997.97;;;27.36;42.06
59240;BME280;45010;53.640;10.578;2023-08-12T03:12:47;100997.97;;;27.36;42.06
59240;BME280;45010;53.640;10.578;2023-08-12T03:15:47;101007.06;;;27.35;42.49
59240;BME280;45010;53.640;10.578;2023-08-12T03:18:48;101012.41;;;27.35;42.42
59240;BME280;45010;53.640;10.578;2023-08-12T03:21:48;101009.16;;;27.33;42.54
59240;BME280;45010;53.640;10.578;2023-08-12T03:24:48;101003.81;;;27.33;42.54
59240;BME280;45010;53.640;10.578;2023-08-12T03:27:49;101003.00;;;27.32;42.08
59240;BME280;45010;53.640;10.578;2023-08-12T03:30:50;101006.72;;;27.31;42.15
59240;BME280;45010;53.640;10.578;2023-08-12T03:33:51;101005.13;;;27.30;42.24
59240;BME280;45010;53.640;10.578;2023-08-12T03:36:51;101000.56;;;27.31;42.05
59240;BME280;45010;53.640;10.578;2023-08-12T03:39:52;100981.75;;;27.25;42.56
59240;BME280;45010;53.640;10.578;2023-08-12T03:42:52;100988.22;;;27.30;42.15
59240;BME280;45010;53.640;10.578;2023-08-12T03:45:52;100988.22;;;27.30;42.08
59240;BME280;45010;53.640;10.578;2023-08-12T03:48:52;100993.56;;;27.30;42.35
59240;BME280;45010;53.640;10.578;2023-08-12T03:51:53;100998.13;;;27.29;41.82
59240;BME280;45010;53.640;10.578;2023-08-12T03:54:53;101006.97;;;27.30;41.97
59240;BME280;45010;53.640;10.578;2023-08-12T03:57:53;101007.19;;;27.28;42.46
59240;BME280;45010;53.640;10.578;2023-08-12T04:00:54;100997.31;;;27.29;42.36
59240;BME280;45010;53.640;10.578;2023-08-12T04:03:54;100989.50;;;27.27;42.18
59240;BME280;45010;53.640;10.578;2023-08-12T04:06:54;100987.66;;;27.28;42.29
59240;BME280;45010;53.640;10.578;2023-08-12T04:10:13;100992.19;;;27.27;42.23
59240;BME280;45010;53.640;10.578;2023-08-12T04:13:14;100976.78;;;27.17;42.22
59240;BME280;45010;53.640;10.578;2023-08-12T04:16:15;100976.94;;;27.28;42.32
59240;BME280;45010;53.640;10.578;2023-08-12T04:19:15;100976.41;;;27.25;42.54
59240;BME280;45010;53.640;10.578;2023-08-12T04:22:15;100978.97;;;27.20;42.71
59240;BME280;45010;53.640;10.578;2023-08-12T04:25:16;100968.50;;;27.19;42.33
59240;BME280;45010;53.640;10.578;2023-08-12T04:28:17;100975.56;;;27.25;42.24
59240;BME280;45010;53.640;10.578;2023-08-12T04:31:18;100964.03;;;27.24;42.28
59240;BME280;45010;53.640;10.578;2023-08-12T04:34:18;100980.09;;;27.24;42.61
59240;BME280;45010;53.640;10.578;2023-08-12T04:37:19;100985.47;;;27.24;42.27
59240;BME280;45010;53.640;10.578;2023-08-12T04:40:19;100979.31;;;27.24;42.37
59240;BME280;45010;53.640;10.578;2023-08-12T04:43:19;100983.59;;;27.25;42.45
59240;BME280;45010;53.640;10.578;2023-08-12T04:46:20;100990.81;;;27.24;42.82
59240;BME280;45010;53.640;10.578;2023-08-12T04:49:20;100967.69;;;27.18;42.70
59240;BME280;45010;53.640;10.578;2023-08-12T04:52:21;100964.31;;;27.23;42.45
59240;BME280;45010;53.640;10.578;2023-08-12T04:55:21;100950.09;;;27.22;42.40
59240;BME280;45010;53.640;10.578;2023-08-12T04:58:22;100962.41;;;27.23;42.47
59240;BME280;45010;53.640;10.578;2023-08-12T05:01:22;100967.78;;;27.23;42.55
59240;BME280;45010;53.640;10.578;2023-08-12T05:04:23;100976.88;;;27.22;42.56
59240;BME280;45010;53.640;10.578;2023-08-12T05:07:23;100986.75;;;27.22;42.76
59240;BME280;45010;53.640;10.578;2023-08-12T05:10:23;101007.13;;;27.23;42.67
59240;BME280;45010;53.640;10.578;2023-08-12T05:13:24;101013.53;;;27.22;42.95
59240;BME280;45010;53.640;10.578;2023-08-12T05:16:24;101017.03;;;27.22;42.89
59240;BME280;45010;53.640;10.578;2023-08-12T05:19:24;100997.47;;;27.22;42.67
59240;BME280;45010;53.640;10.578;2023-08-12T05:22:25;100988.63;;;27.21;42.67
59240;BME280;45010;53.640;10.578;2023-08-12T05:25:25;100995.06;;;27.20;42.71
59240;BME280;45010;53.640;10.578;2023-08-12T05:28:25;100992.38;;;27.20;42.97
59240;BME280;45010;53.640;10.578;2023-08-12T05:31:26;100994.22;;;27.20;42.98
59240;BME280;45010;53.640;10.578;2023-08-12T05:34:27;100985.13;;;27.21;42.52
59240;BME280;45010;53.640;10.578;2023-08-12T05:37:27;100977.09;;;27.21;42.61
59240;BME280;45010;53.640;10.578;2023-08-12T05:40:28;100962.91;;;27.20;42.74
59240;BME280;45010;53.640;10.578;2023-08-12T05:43:28;100952.22;;;27.20;42.52
59240;BME280;45010;53.640;10.578;2023-08-12T05:46:28;100966.63;;;27.19;42.94
59240;BME280;45010;53.640;10.578;2023-08-12T05:49:29;100968.28;;;27.20;42.95
59240;BME280;45010;53.640;10.578;2023-08-12T05:52:29;100967.44;;;27.20;42.68
59240;BME280;45010;53.640;10.578;2023-08-12T05:55:29;100955.28;;;27.12;43.11
59240;BME280;45010;53.640;10.578;2023-08-12T05:58:30;100965.50;;;27.15;43.10
59240;BME280;45010;53.640;10.578;2023-08-12T06:01:30;100980.84;;;27.20;42.96
59240;BME280;45010;53.640;10.578;2023-08-12T06:04:30;100972.81;;;27.20;43.21
59240;BME280;45010;53.640;10.578;2023-08-12T06:07:31;100971.97;;;27.19;42.87
59240;BME280;45010;53.640;10.578;2023-08-12T06:10:32;100971.19;;;27.19;43.35
59240;BME280;45010;53.640;10.578;2023-08-12T06:13:33;100969.31;;;27.19;43.00
59240;BME280;45010;53.640;10.578;2023-08-12T06:16:33;100963.88;;;27.14;43.37
59240;BME280;45010;53.640;10.578;2023-08-12T06:19:34;100982.69;;;27.19;43.28
59240;BME280;45010;53.640;10.578;2023-08-12T06:22:34;100969.25;;;27.14;43.47
59240;BME280;45010;53.640;10.578;2023-08-12T06:25:34;100977.34;;;27.19;43.36
59240;BME280;45010;53.640;10.578;2023-08-12T06:28:36;100976.78;;;27.17;43.36
59240;BME280;45010;53.640;10.578;2023-08-12T06:31:36;100978.97;;;27.20;43.41
59240;BME280;45010;53.640;10.578;2023-08-12T06:34:37;100983.50;;;27.20;43.52
59240;BME280;45010;53.640;10.578;2023-08-12T06:37:37;100978.97;;;27.20;43.68
59240;BME280;45010;53.640;10.578;2023-08-12T06:40:38;100978.97;;;27.20;43.25
59240;BME280;45010;53.640;10.578;2023-08-12T06:43:38;100982.69;;;27.19;43.68
59240;BME280;45010;53.640;10.578;2023-08-12T06:46:38;100983.28;;;27.21;43.72
59240;BME280;45010;53.640;10.578;2023-08-12T06:49:39;100985.13;;;27.21;43.87
59240;BME280;45010;53.640;10.578;2023-08-12T06:52:39;100973.63;;;27.20;43.74
59240;BME280;45010;53.640;10.578;2023-08-12T06:55:44;100967.13;;;27.16;43.37
59240;BME280;45010;53.640;10.578;2023-08-12T06:58:45;100975.25;;;27.21;43.58
59240;BME280;45010;53.640;10.578;2023-08-12T07:01:45;100971.50;;;27.22;43.89
59240;BME280;45010;53.640;10.578;2023-08-12T07:04:46;100966.16;;;27.22;43.77
59240;BME280;45010;53.640;10.578;2023-08-12T07:07:46;100966.16;;;27.22;43.98
59240;BME280;45010;53.640;10.578;2023-08-12T07:10:46;100960.81;;;27.22;44.27
59240;BME280;45010;53.640;10.578;2023-08-12T07:13:47;100960.81;;;27.22;44.31
59240;BME280;45010;53.640;10.578;2023-08-12T07:16:47;100960.81;;;27.22;44.47
59240;BME280;45010;53.640;10.578;2023-08-12T07:19:47;100960.81;;;27.22;44.34
59240;BME280;45010;53.640;10.578;2023-08-12T07:22:48;100960.81;;;27.22;44.08
59240;BME280;45010;53.640;10.578;2023-08-12T07:25:48;100954.63;;;27.22;44.13
59240;BME280;45010;53.640;10.578;2023-08-12T07:28:49;100944.19;;;27.20;44.77
59240;BME280;45010;53.640;10.578;2023-08-12T07:31:49;100949.25;;;27.22;44.99
59240;BME280;45010;53.640;10.578;2023-08-12T07:34:49;100947.41;;;27.22;44.94
59240;BME280;45010;53.640;10.578;2023-08-12T07:37:50;100938.31;;;27.23;44.78
59240;BME280;45010;53.640;10.578;2023-08-12T07:40:50;100938.31;;;27.23;44.58
59240;BME280;45010;53.640;10.578;2023-08-12T07:43:50;100931.09;;;27.24;44.89
59240;BME280;45010;53.640;10.578;2023-08-12T07:46:51;100926.53;;;27.24;44.67
59240;BME280;45010;53.640;10.578;2023-08-12T07:49:51;100933.56;;;27.25;45.09
59240;BME280;45010;53.640;10.578;2023-08-12T07:52:51;100926.06;;;27.28;44.65
59240;BME280;45010;53.640;10.578;2023-08-12T07:55:52;100920.41;;;27.24;44.96
59240;BME280;45010;53.640;10.578;2023-08-12T07:58:52;100920.22;;;27.31;44.79
59240;BME280;45010;53.640;10.578;2023-08-12T08:01:52;100922.88;;;27.31;44.46
59240;BME280;45010;53.640;10.578;2023-08-12T08:04:53;100921.84;;;27.32;44.71
59240;BME280;45010;53.640;10.578;2023-08-12T08:07:53;100924.03;;;27.35;44.55
59240;BME280;45010;53.640;10.578;2023-08-12T08:10:53;100917.63;;;27.36;44.90
59240;BME280;45010;53.640;10.578;2023-08-12T08:13:54;100918.84;;;27.28;44.85
59240;BME280;45010;53.640;10.578;2023-08-12T08:16:54;100931.59;;;27.38;44.76
59240;BME280;45010;53.640;10.578;2023-08-12T08:19:54;100929.69;;;27.38;44.39
59240;BME280;45010;53.640;10.578;2023-08-12T08:22:55;100929.47;;;27.40;44.56
59240;BME280;45010;53.640;10.578;2023-08-12T08:25:55;100936.44;;;27.41;44.39
59240;BME280;45010;53.640;10.578;2023-08-12T08:28:55;100931.09;;;27.41;44.67
59240;BME280;45010;53.640;10.578;2023-08-12T08:31:56;100929.22;;;27.42;44.71
59240;BME280;45010;53.640;10.578;2023-08-12T08:34:56;100927.34;;;27.42;44.99
59240;BME280;45010;53.640;10.578;2023-08-12T08:37:56;100925.72;;;27.41;44.98
59240;BME280;45010;53.640;10.578;2023-08-12T08:40:57;100910.63;;;27.35;44.82
59240;BME280;45010;53.640;10.578;2023-08-12T08:44:02;100918.75;;;27.40;45.27
59240;BME280;45010;53.640;10.578;2023-08-12T08:47:04;100922.06;;;27.47;45.04
59240;BME280;45010;53.640;10.578;2023-08-12T08:50:05;100924.50;;;27.49;45.01
59240;BME280;45010;53.640;10.578;2023-08-12T08:53:06;100914.53;;;27.44;44.57
59240;BME280;45010;53.640;10.578;2023-08-12T08:56:08;100916.16;;;27.45;45.46
59240;BME280;45010;53.640;10.578;2023-08-12T08:59:11;100921.31;;;27.52;45.01
59240;BME280;45010;53.640;10.578;2023-08-12T09:02:18;100923.19;;;27.51;45.10
59240;BME280;45010;53.640;10.578;2023-08-12T09:05:19;100902.69;;;27.40;45.53
59240;BME280;45010;53.640;10.578;2023-08-12T09:08:22;100917.34;;;27.55;45.74
59240;BME280;45010;53.640;10.578;2023-08-12T09:11:23;100933.16;;;27.56;46.01
59240;BME280;45010;53.640;10.578;2023-08-12T09:14:24;100926.75;;;27.57;46.08
59240;BME280;45010;53.640;10.578;2023-08-12T09:17:24;100916.28;;;27.56;45.81
59240;BME280;45010;53.640;10.578;2023-08-12T09:20:24;100911.53;;;27.58;45.77
59240;BME280;45010;53.640;10.578;2023-08-12T09:23:26;100888.84;;;27.48;46.11
59240;BME280;45010;53.640;10.578;2023-08-12T09:26:28;100894.38;;;27.59;46.49
59240;BME280;45010;53.640;10.578;2023-08-12T09:29:35;100894.94;;;27.61;46.67
59240;BME280;45010;53.640;10.578;2023-08-12T09:32:36;100891.47;;;27.60;46.75
59240;BME280;45010;53.640;10.578;2023-08-12T09:35:40;100893.91;;;27.62;47.01
59240;BME280;45010;53.640;10.578;2023-08-12T09:38:40;100892.84;;;27.63;47.04
59240;BME280;45010;53.640;10.578;2023-08-12T09:41:42;100894.38;;;27.59;47.05
59240;BME280;45010;53.640;10.578;2023-08-12T09:44:43;100892.56;;;27.64;46.75
59240;BME280;45010;53.640;10.578;2023-08-12T09:47:43;100893.41;;;27.65;46.92
59240;BME280;45010;53.640;10.578;2023-08-12T09:50:44;100883.69;;;27.59;46.50
59240;BME280;45010;53.640;10.578;2023-08-12T09:53:47;100896.63;;;27.67;46.61
59240;BME280;45010;53.640;10.578;2023-08-12T09:56:48;100883.19;;;27.62;46.82
59240;BME280;45010;53.640;10.578;2023-08-12T09:59:50;100896.94;;;27.71;46.96
59240;BME280;45010;53.640;10.578;2023-08-12T10:02:53;100887.03;;;27.71;46.57
59240;BME280;45010;53.640;10.578;2023-08-12T10:05:55;100898.31;;;27.73;47.11
59240;BME280;45010;53.640;10.578;2023-08-12T10:08:56;100883.50;;;27.65;47.13
59240;BME280;45010;53.640;10.578;2023-08-12T10:11:57;100888.66;;;27.72;47.37
59240;BME280;45010;53.640;10.578;2023-08-12T10:14:58;100874.41;;;27.66;46.94
59240;BME280;45010;53.640;10.578;2023-08-12T10:17:59;100884.13;;;27.73;46.96
59240;BME280;45010;53.640;10.578;2023-08-12T10:21:00;100851.97;;;27.56;47.19
59240;BME280;45010;53.640;10.578;2023-08-12T10:24:02;100890.28;;;27.73;47.39
59240;BME280;45010;53.640;10.578;2023-08-12T10:27:03;100878.78;;;27.73;47.53
59240;BME280;45010;53.640;10.578;2023-08-12T10:30:05;100873.41;;;27.73;47.39
59240;BME280;45010;53.640;10.578;2023-08-12T10:33:06;100870.50;;;27.74;47.16
59240;BME280;45010;53.640;10.578;2023-08-12T10:36:07;100857.09;;;27.74;47.91
59240;BME280;45010;53.640;10.578;2023-08-12T10:39:08;100846.31;;;27.69;47.27
59240;BME280;45010;53.640;10.578;2023-08-12T10:42:10;100852.88;;;27.84;47.71
59240;BME280;45010;53.640;10.578;2023-08-12T10:45:12;100832.03;;;27.63;47.24
59240;BME280;45010;53.640;10.578;2023-08-12T10:48:23;100838.81;;;27.71;47.30
59240;BME280;45010;53.640;10.578;2023-08-12T10:54:39;100835.91;;;27.73;47.41
59240;BME280;45010;53.640;10.578;2023-08-12T10:57:40;100825.19;;;27.73;47.02
59240;BME280;45010;53.640;10.578;2023-08-12T11:00:41;100807.59;;;27.60;47.21
59240;BME280;45010;53.640;10.578;2023-08-12T11:03:45;100831.31;;;27.73;47.67
59240;BME280;45010;53.640;10.578;2023-08-12T11:06:46;100834.84;;;27.74;47.25
59240;BME280;45010;53.640;10.578;2023-08-12T11:09:51;100811.88;;;27.61;47.24
59240;BME280;45010;53.640;10.578;2023-08-12T11:16:05;100826.78;;;27.74;47.19
59240;BME280;45010;53.640;10.578;2023-08-12T11:19:06;100823.28;;;27.73;47.02
59240;BME280;45010;53.640;10.578;2023-08-12T11:22:07;100812.53;;;27.68;47.18
59240;BME280;45010;53.640;10.578;2023-08-12T11:25:11;100814.63;;;27.66;47.35
59240;BME280;45010;53.640;10.578;2023-08-12T11:28:11;100825.97;;;27.73;46.99
59240;BME280;45010;53.640;10.578;2023-08-12T11:31:12;100824.94;;;27.74;47.38
59240;BME280;45010;53.640;10.578;2023-08-12T11:34:12;100810.88;;;27.67;47.52
59240;BME280;45010;53.640;10.578;2023-08-12T11:37:13;100822.25;;;27.74;47.62
59240;BME280;45010;53.640;10.578;2023-08-12T11:40:15;100815.81;;;27.75;47.76
59240;BME280;45010;53.640;10.578;2023-08-12T11:43:16;100806.97;;;27.75;48.06
59240;BME280;45010;53.640;10.578;2023-08-12T11:46:16;100810.47;;;27.75;48.58
59240;BME280;45010;53.640;10.578;2023-08-12T11:49:17;100812.09;;;27.76;48.51
59240;BME280;45010;53.640;10.578;2023-08-12T11:52:18;100793.50;;;27.70;48.68
59240;BME280;45010;53.640;10.578;2023-08-12T11:55:18;100818.00;;;27.78;48.73
59240;BME280;45010;53.640;10.578;2023-08-12T11:58:19;100812.63;;;27.78;48.82
59240;BME280;45010;53.640;10.578;2023-08-12T12:01:21;100811.31;;;27.81;48.62
59240;BME280;45010;53.640;10.578;2023-08-12T12:04:22;100812.16;;;27.82;48.28
59240;BME280;45010;53.640;10.578;2023-08-12T12:07:25;100788.44;;;27.73;48.44
59240;BME280;45010;53.640;10.578;2023-08-12T12:10:28;100806.25;;;27.85;48.52
59240;BME280;45010;53.640;10.578;2023-08-12T12:13:29;100771.28;;;27.69;48.50
59240;BME280;45010;53.640;10.578;2023-08-12T12:19:40;100797.16;;;27.86;48.36
59240;BME280;45010;53.640;10.578;2023-08-12T12:22:43;100794.47;;;27.86;48.64
59240;BME280;45010;53.640;10.578;2023-08-12T12:25:44;100795.53;;;27.85;48.25
59240;BME280;45010;53.640;10.578;2023-08-12T12:28:45;100788.56;;;27.84;47.96
59240;BME280;45010;53.640;10.578;2023-08-12T12:31:45;100783.75;;;27.86;48.51
59240;BME280;45010;53.640;10.578;2023-08-12T12:34:46;100788.09;;;27.87;48.14
59240;BME280;45010;53.640;10.578;2023-08-12T12:37:46;100788.09;;;27.87;48.21
59240;BME280;45010;53.640;10.578;2023-08-12T12:40:47;100777.34;;;27.87;48.31
59240;BME280;45010;53.640;10.578;2023-08-12T12:43:47;100766.63;;;27.87;48.11
59240;BME280;45010;53.640;10.578;2023-08-12T12:46:48;100754.28;;;27.86;48.43
59240;BME280;45010;53.640;10.578;2023-08-12T12:49:48;100730.13;;;27.81;48.39
59240;BME280;45010;53.640;10.578;2023-08-12T12:52:48;100736.09;;;27.88;48.28
59240;BME280;45010;53.640;10.578;2023-08-12T12:55:49;100731.53;;;27.88;48.74
59240;BME280;45010;53.640;10.578;2023-08-12T12:58:49;100726.97;;;27.89;49.09
59240;BME280;45010;53.640;10.578;2023-08-12T13:01:49;100727.81;;;27.89;48.98
59240;BME280;45010;53.640;10.578;2023-08-12T13:04:50;100707.16;;;27.90;48.48
59240;BME280;45010;53.640;10.578;2023-08-12T13:07:50;100717.88;;;27.90;48.75
59240;BME280;45010;53.640;10.578;2023-08-12T13:10:50;100726.97;;;27.89;49.00
59240;BME280;45010;53.640;10.578;2023-08-12T13:13:51;100729.66;;;27.89;48.60
59240;BME280;45010;53.640;10.578;2023-08-12T13:16:51;100733.97;;;27.90;48.80
59240;BME280;45010;53.640;10.578;2023-08-12T13:19:51;100730.22;;;27.91;48.90
59240;BME280;45010;53.640;10.578;2023-08-12T13:22:52;100709.84;;;27.90;48.50
59240;BME280;45010;53.640;10.578;2023-08-12T13:25:52;100709.00;;;27.84;48.70
59240;BME280;45010;53.640;10.578;2023-08-12T13:28:53;100700.06;;;27.78;48.75
59240;BME280;45010;53.640;10.578;2023-08-12T13:31:53;100714.13;;;27.91;48.42
59240;BME280;45010;53.640;10.578;2023-08-12T13:34:53;100717.88;;;27.90;48.20
59240;BME280;45010;53.640;10.578;2023-08-12T13:37:54;100716.25;;;27.89;48.88
59240;BME280;45010;53.640;10.578;2023-08-12T13:40:54;100712.50;;;27.90;48.93
59240;BME280;45010;53.640;10.578;2023-08-12T13:43:55;100713.59;;;27.89;49.02
59240;BME280;45010;53.640;10.578;2023-08-12T13:46:55;100697.97;;;27.81;48.48
59240;BME280;45010;53.640;10.578;2023-08-12T13:49:55;100709.28;;;27.88;48.95
59240;BME280;45010;53.640;10.578;2023-08-12T13:52:56;100714.66;;;27.88;48.17
59240;BME280;45010;53.640;10.578;2023-08-12T13:55:57;100711.97;;;27.88;48.55
59240;BME280;45010;53.640;10.578;2023-08-12T13:58:57;100706.03;;;27.86;48.58
59240;BME280;45010;53.640;10.578;2023-08-12T14:01:57;100709.28;;;27.88;48.39
59240;BME280;45010;53.640;10.578;2023-08-12T14:04:58;100694.22;;;27.82;48.74
59240;BME280;45010;53.640;10.578;2023-08-12T14:07:58;100703.94;;;27.88;48.44
59240;BME280;45010;53.640;10.578;2023-08-12T14:10:59;100703.09;;;27.87;48.58
59240;BME280;45010;53.640;10.578;2023-08-12T14:14:00;100703.94;;;27.88;48.51
59240;BME280;45010;53.640;10.578;2023-08-12T14:17:00;100695.06;;;27.87;48.45
59240;BME280;45010;53.640;10.578;2023-08-12T14:20:00;100679.16;;;27.75;48.43
59240;BME280;45010;53.640;10.578;2023-08-12T14:23:01;100700.66;;;27.86;48.09
59240;BME280;45010;53.640;10.578;2023-08-12T14:26:01;100695.31;;;27.86;48.05
59240;BME280;45010;53.640;10.578;2023-08-12T14:29:01;100700.66;;;27.86;47.72
59240;BME280;45010;53.640;10.578;2023-08-12T14:32:02;100709.00;;;27.84;48.53
59240;BME280;45010;53.640;10.578;2023-08-12T14:35:03;100708.13;;;27.78;47.99
59240;BME280;45010;53.640;10.578;2023-08-12T14:38:03;100708.69;;;27.81;47.93
59240;BME280;45010;53.640;10.578;2023-08-12T14:41:04;100697.69;;;27.82;48.02
59240;BME280;45010;53.640;10.578;2023-08-12T14:44:04;100690.47;;;27.83;47.91
59240;BME280;45010;53.640;10.578;2023-08-12T14:47:05;100690.47;;;27.83;47.94
59240;BME280;45010;53.640;10.578;2023-08-12T14:50:06;100683.50;;;27.82;47.80
59240;BME280;45010;53.640;10.578;2023-08-12T14:53:06;100684.56;;;27.81;47.99
59240;BME280;45010;53.640;10.578;2023-08-12T14:56:06;100675.72;;;27.80;47.98
59240;BME280;45010;53.640;10.578;2023-08-12T14:59:07;100687.25;;;27.81;47.53
59240;BME280;45010;53.640;10.578;2023-08-12T15:02:07;100673.84;;;27.81;47.59
59240;BME280;45010;53.640;10.578;2023-08-12T15:05:07;100676.53;;;27.81;47.67
59240;BME280;45010;53.640;10.578;2023-08-12T15:08:08;100681.91;;;27.81;47.79
59240;BME280;45010;53.640;10.578;2023-08-12T15:11:08;100659.25;;;27.66;47.77
59240;BME280;45010;53.640;10.578;2023-08-12T15:14:08;100677.31;;;27.81;47.84
59240;BME280;45010;53.640;10.578;2023-08-12T15:17:09;100668.50;;;27.81;47.87
59240;BME280;45010;53.640;10.578;2023-08-12T15:20:09;100668.50;;;27.81;48.13
59240;BME280;45010;53.640;10.578;2023-08-12T15:23:10;100654.78;;;27.77;48.20
59240;BME280;45010;53.640;10.578;2023-08-12T15:26:11;100663.69;;;27.83;48.02
59240;BME280;45010;53.640;10.578;2023-08-12T15:29:12;100666.91;;;27.85;48.08
59240;BME280;45010;53.640;10.578;2023-08-12T15:32:12;100655.13;;;27.86;47.22
59240;BME280;45010;53.640;10.578;2023-08-12T15:35:12;100655.69;;;27.88;47.88
59240;BME280;45010;53.640;10.578;2023-08-12T15:38:13;100623.69;;;27.76;47.89
59240;BME280;45010;53.640;10.578;2023-08-12T15:41:15;100637.47;;;27.90;48.01
59240;BME280;45010;53.640;10.578;2023-08-12T15:44:15;100631.00;;;27.86;47.76
59240;BME280;45010;53.640;10.578;2023-08-12T15:47:16;100639.06;;;27.91;47.94
59240;BME280;45010;53.640;10.578;2023-08-12T15:50:16;100645.56;;;27.95;47.93